Dhaka, Bangladesh
Current Conditions -  °F | °C
As of 2:20 AM on Tuesday 25 Nov 2014 (Local Time) from VGHS Reporting Station
Haze Haze  
Wind Chill: 68°   Ceiling: Unl
Heat Index: 68°   Visibility: 1.3mi
Dew Point: 63°   Wind: 0mph
Humidity: 83%   Direction: NA
Pressure: 29.88"   Gusts: NA
Location:  23.7°N, 90.39°E
Report Text: VGHS 242020Z 00000KT 2200 BR NSC 20/17 Q1012 TEMPO S/VIS 2000M
Loading
Personal Weather Stations






























Interactive Weather Map New forecast layout! Learn more

10-Day Weather Forecast

Advertisements
Track Severe Weather on mobile